createdAt,value
2019-05-18T00:02:22.679Z,11.42
2019-05-18T00:04:53.980Z,11.37
2019-05-18T00:07:23.999Z,11.37
2019-05-18T00:09:54.514Z,11.39
2019-05-18T00:12:24.706Z,11.48
2019-05-18T00:14:54.864Z,11.52
2019-05-18T00:17:28.641Z,11.38
2019-05-18T00:19:58.853Z,11.41
2019-05-18T00:22:28.926Z,11.45
2019-05-18T00:24:58.938Z,11.41
2019-05-18T00:27:29.123Z,11.42
2019-05-18T00:29:59.246Z,11.38
2019-05-18T00:32:29.238Z,11.39
2019-05-18T00:34:59.491Z,11.29
2019-05-18T00:37:31.046Z,11.28
2019-05-18T00:40:01.435Z,11.32
2019-05-18T00:42:31.496Z,11.23
2019-05-18T00:45:02.056Z,11.30
2019-05-18T00:47:40.946Z,11.27
2019-05-18T00:50:04.443Z,11.31
2019-05-18T00:52:34.725Z,11.31
2019-05-18T00:55:06.898Z,11.28
2019-05-18T00:57:37.297Z,11.31
2019-05-18T01:00:07.392Z,11.34
2019-05-18T01:02:37.466Z,11.32
2019-05-18T01:05:07.493Z,11.28
2019-05-18T01:07:37.615Z,11.32
2019-05-18T01:10:07.930Z,11.36
2019-05-18T01:12:38.137Z,11.33
2019-05-18T01:15:08.906Z,11.37
2019-05-18T01:17:39.325Z,11.40
2019-05-18T01:20:09.783Z,11.43
2019-05-18T01:22:39.875Z,11.41
2019-05-18T01:25:10.380Z,11.32
2019-05-18T01:27:40.730Z,11.35
2019-05-18T01:30:11.234Z,11.39
2019-05-18T01:32:41.317Z,11.47
2019-05-18T01:35:12.148Z,11.54
2019-05-18T01:37:42.189Z,11.54
2019-05-18T01:40:12.631Z,11.49
2019-05-18T01:42:42.713Z,11.43
2019-05-18T01:45:17.196Z,11.49
2019-05-18T01:47:45.690Z,11.45
2019-05-18T01:50:17.704Z,11.52
2019-05-18T01:52:48.314Z,11.54
2019-05-18T01:55:18.326Z,11.42
2019-05-18T01:57:51.142Z,11.49
2019-05-18T02:00:21.344Z,11.50
2019-05-18T02:02:51.749Z,11.49
2019-05-18T02:05:21.910Z,11.49
2019-05-18T02:07:52.938Z,11.52
2019-05-18T02:10:23.374Z,11.54
2019-05-18T02:12:54.288Z,11.48
2019-05-18T02:15:24.305Z,11.54
2019-05-18T02:17:54.345Z,11.64
2019-05-18T02:20:24.525Z,11.62
2019-05-18T02:22:54.623Z,11.64
2019-05-18T02:25:25.002Z,11.60
2019-05-18T02:27:55.501Z,11.68
2019-05-18T02:30:25.807Z,11.68
2019-05-18T02:32:55.787Z,11.70
2019-05-18T02:35:26.113Z,11.75
2019-05-18T02:38:13.670Z,11.67
2019-05-18T02:40:44.270Z,11.69
2019-05-18T02:43:14.317Z,11.70
2019-05-18T02:45:44.390Z,11.76
2019-05-18T02:48:14.794Z,11.73
2019-05-18T02:50:44.795Z,11.72
2019-05-18T02:53:14.847Z,11.72
2019-05-18T02:55:45.728Z,11.78
2019-05-18T02:58:16.157Z,11.83
2019-05-18T03:00:46.332Z,11.67
2019-05-18T03:03:16.329Z,11.70
2019-05-18T03:05:46.296Z,11.75
2019-05-18T03:08:16.492Z,11.83
2019-05-18T03:10:46.526Z,11.75
2019-05-18T03:13:16.669Z,11.77
2019-05-18T03:15:46.689Z,11.84
2019-05-18T03:18:17.048Z,11.84
2019-05-18T03:20:47.058Z,11.78
2019-05-18T03:23:19.228Z,11.72
2019-05-18T03:25:49.701Z,11.77
2019-05-18T03:28:20.042Z,11.67
2019-05-18T03:30:50.278Z,11.80
2019-05-18T03:33:20.427Z,11.92
2019-05-18T03:35:50.561Z,11.83
2019-05-18T03:38:21.707Z,11.80
2019-05-18T03:40:52.072Z,11.85
2019-05-18T03:43:22.451Z,11.84
2019-05-18T03:45:52.517Z,11.87
2019-05-18T03:48:22.895Z,11.93
2019-05-18T03:50:52.998Z,12.00
2019-05-18T03:53:23.053Z,11.99
2019-05-18T03:55:53.195Z,11.96
2019-05-18T03:58:23.276Z,12.01
2019-05-18T04:00:53.291Z,12.06
2019-05-18T04:03:23.416Z,12.07
2019-05-18T04:05:53.410Z,12.16
2019-05-18T04:08:23.852Z,12.18
2019-05-18T04:10:53.900Z,12.20
2019-05-18T04:13:24.018Z,12.21
2019-05-18T04:15:54.138Z,12.11
2019-05-18T04:18:24.230Z,12.04
2019-05-18T04:20:54.303Z,12.02
2019-05-18T04:23:24.304Z,11.93
2019-05-18T04:25:55.383Z,11.96
2019-05-18T04:28:25.504Z,11.98
2019-05-18T04:30:55.848Z,11.98
2019-05-18T04:33:25.832Z,11.97
2019-05-18T04:35:55.996Z,12.00
2019-05-18T04:38:26.782Z,12.02
2019-05-18T04:40:57.107Z,12.10
2019-05-18T04:43:27.135Z,12.11
2019-05-18T04:45:57.221Z,12.16
2019-05-18T04:48:27.896Z,12.09
2019-05-18T04:50:58.391Z,12.16
2019-05-18T04:53:28.816Z,12.13
2019-05-18T04:55:59.231Z,12.22
2019-05-18T04:58:29.243Z,12.13
2019-05-18T05:00:59.320Z,12.20
2019-05-18T05:03:29.509Z,12.16
2019-05-18T05:05:59.890Z,12.23
2019-05-18T05:08:29.936Z,12.32
2019-05-18T05:11:00.040Z,12.36
2019-05-18T05:13:30.426Z,12.32
2019-05-18T05:16:00.476Z,12.38
2019-05-18T05:18:30.615Z,12.45
2019-05-18T05:21:00.694Z,12.55
2019-05-18T05:23:31.008Z,12.54
2019-05-18T05:26:01.025Z,12.60
2019-05-18T05:28:34.503Z,12.67
2019-05-18T05:31:04.850Z,12.84
2019-05-18T05:33:34.949Z,12.83
2019-05-18T05:36:08.878Z,12.78
2019-05-18T05:38:38.867Z,12.97
2019-05-18T05:41:08.885Z,12.91
2019-05-18T05:43:39.339Z,13.06
2019-05-18T05:46:09.706Z,13.26
2019-05-18T05:48:41.270Z,13.21
2019-05-18T05:51:11.291Z,13.21
2019-05-18T05:53:42.006Z,13.16
2019-05-18T05:56:12.311Z,13.25
2019-05-18T05:58:42.400Z,13.25
2019-05-18T06:01:12.388Z,13.24
2019-05-18T06:03:42.775Z,13.23
2019-05-18T06:06:12.706Z,13.10
2019-05-18T06:08:43.002Z,13.23
2019-05-18T06:11:13.482Z,13.23
2019-05-18T06:13:49.589Z,13.32
2019-05-18T06:16:20.371Z,13.36
2019-05-18T06:18:50.863Z,13.13
2019-05-18T06:21:20.838Z,13.13
2019-05-18T06:23:51.273Z,13.34
2019-05-18T06:26:24.172Z,13.41
2019-05-18T06:28:56.116Z,13.41
2019-05-18T06:31:26.249Z,13.52
2019-05-18T06:33:56.361Z,13.54
2019-05-18T06:36:26.907Z,13.52
2019-05-18T06:38:57.060Z,13.52
2019-05-18T06:41:27.457Z,13.50
2019-05-18T06:43:58.481Z,13.54
2019-05-18T06:46:29.252Z,13.45
2019-05-18T06:48:59.981Z,13.45
2019-05-18T06:51:30.417Z,13.46
2019-05-18T06:54:00.498Z,13.46
2019-05-18T06:56:31.679Z,13.63
2019-05-18T06:59:01.870Z,13.76
2019-05-18T07:01:31.863Z,13.76
2019-05-18T07:04:03.687Z,13.94
2019-05-18T07:06:33.696Z,14.10
2019-05-18T07:09:12.523Z,14.04
2019-05-18T07:11:38.087Z,14.19
2019-05-18T07:14:09.192Z,14.34
2019-05-18T07:16:39.599Z,14.51
2019-05-18T07:19:10.150Z,14.73
2019-05-18T07:21:40.208Z,14.79
2019-05-18T07:24:10.695Z,14.60
2019-05-18T07:26:41.071Z,14.57
2019-05-18T07:29:11.197Z,14.37
2019-05-18T07:31:41.187Z,14.47
2019-05-18T07:34:11.339Z,14.65
2019-05-18T07:36:41.754Z,15.18
2019-05-18T07:39:13.892Z,15.65
2019-05-18T07:41:46.647Z,16.04
2019-05-18T07:44:15.961Z,16.22
2019-05-18T07:46:47.182Z,16.29
2019-05-18T07:49:17.324Z,16.27
2019-05-18T07:51:47.330Z,16.35
2019-05-18T07:54:17.422Z,15.94
2019-05-18T07:56:47.533Z,16.09
2019-05-18T07:59:19.892Z,15.96
2019-05-18T08:01:49.734Z,16.05
2019-05-18T08:04:19.900Z,15.87
2019-05-18T08:06:50.005Z,15.95
2019-05-18T08:09:20.073Z,15.96
2019-05-18T08:11:50.561Z,16.10
2019-05-18T08:14:20.580Z,16.09
2019-05-18T08:16:51.163Z,16.28
2019-05-18T08:19:21.717Z,15.95
2019-05-18T08:21:53.576Z,16.04
2019-05-18T08:24:23.745Z,16.07
2019-05-18T08:26:55.157Z,16.07
2019-05-18T08:29:25.733Z,16.21
2019-05-18T08:31:56.089Z,16.34
2019-05-18T08:34:26.229Z,16.14
2019-05-18T08:36:56.499Z,16.31
2019-05-18T08:39:26.628Z,16.54
2019-05-18T08:41:56.681Z,16.83
2019-05-18T08:44:26.694Z,16.87
2019-05-18T08:46:56.835Z,17.02
2019-05-18T08:49:26.881Z,17.08
2019-05-18T08:52:07.781Z,16.98
2019-05-18T08:54:29.329Z,16.91
2019-05-18T08:56:59.363Z,17.16
2019-05-18T08:59:29.356Z,17.45
2019-05-18T09:01:59.400Z,17.74
2019-05-18T09:04:29.447Z,17.72
2019-05-18T09:06:59.479Z,17.59
2019-05-18T09:09:29.496Z,17.87
2019-05-18T09:11:59.527Z,18.10
2019-05-18T09:14:29.632Z,17.99
2019-05-18T09:17:00.012Z,17.98
2019-05-18T09:19:30.129Z,18.17
2019-05-18T09:22:00.269Z,18.22
2019-05-18T09:24:30.354Z,18.17
2019-05-18T09:27:00.307Z,18.15
2019-05-18T09:29:30.824Z,18.33
2019-05-18T09:32:00.872Z,18.63
2019-05-18T09:34:30.994Z,18.46
2019-05-18T09:37:01.348Z,19.05
2019-05-18T09:39:35.051Z,19.42
2019-05-18T09:42:05.175Z,20.06
2019-05-18T09:44:35.255Z,19.90
2019-05-18T09:47:05.287Z,20.09
2019-05-18T09:49:35.421Z,20.69
2019-05-18T09:52:06.084Z,21.22
2019-05-18T09:54:36.836Z,21.55
2019-05-18T09:57:07.054Z,21.39
2019-05-18T09:59:37.106Z,21.39
2019-05-18T10:02:07.243Z,20.63
2019-05-18T10:04:37.317Z,20.82
2019-05-18T10:07:07.382Z,21.31
2019-05-18T10:09:39.513Z,21.53
2019-05-18T10:12:09.399Z,21.06
2019-05-18T10:14:41.001Z,21.18
2019-05-18T10:17:11.188Z,21.42
2019-05-18T10:19:41.218Z,21.71
2019-05-18T10:22:11.793Z,22.03
2019-05-18T10:24:41.929Z,22.43
2019-05-18T10:27:12.027Z,22.35
2019-05-18T10:29:42.285Z,22.00
2019-05-18T10:32:12.538Z,21.77
2019-05-18T10:34:43.030Z,22.14
2019-05-18T10:37:14.082Z,22.58
2019-05-18T10:39:44.166Z,23.17
2019-05-18T10:42:14.487Z,23.28
2019-05-18T10:44:44.981Z,22.81
2019-05-18T10:47:20.926Z,23.28
2019-05-18T10:49:52.118Z,23.78
2019-05-18T10:52:25.114Z,24.21
2019-05-18T10:54:55.908Z,23.76
2019-05-18T10:57:26.545Z,23.99
2019-05-18T10:59:57.230Z,24.54
2019-05-18T11:02:27.433Z,23.66
2019-05-18T11:04:57.654Z,22.89
2019-05-18T11:07:30.978Z,22.92
2019-05-18T11:10:01.579Z,23.00
2019-05-18T11:12:32.033Z,23.50
2019-05-18T11:15:02.307Z,23.43
2019-05-18T11:17:32.964Z,23.14
2019-05-18T11:20:03.970Z,21.56
2019-05-18T11:22:34.295Z,21.42
2019-05-18T11:25:04.761Z,21.62
2019-05-18T11:27:37.239Z,21.10
2019-05-18T11:30:09.006Z,21.15
2019-05-18T11:32:39.616Z,20.70
2019-05-18T11:35:10.206Z,20.46
2019-05-18T11:37:40.761Z,20.58
2019-05-18T11:40:11.487Z,20.75
2019-05-18T11:42:41.870Z,20.82
2019-05-18T11:45:13.447Z,21.07
2019-05-18T11:47:44.268Z,21.52
2019-05-18T11:50:14.684Z,21.32
2019-05-18T11:52:48.454Z,21.18
2019-05-18T11:55:21.786Z,21.43
2019-05-18T11:57:52.298Z,21.06
2019-05-18T12:00:23.902Z,20.92
2019-05-18T12:02:54.535Z,21.47
2019-05-18T12:05:25.570Z,22.54
2019-05-18T12:07:55.834Z,21.76
2019-05-18T12:10:26.062Z,21.47
2019-05-18T12:12:56.407Z,21.70
2019-05-18T12:15:27.506Z,22.58
2019-05-18T12:17:57.871Z,22.82
2019-05-18T12:20:27.919Z,23.73
2019-05-18T12:23:01.465Z,23.85
2019-05-18T12:25:32.239Z,23.53
2019-05-18T12:28:03.623Z,24.37
2019-05-18T12:30:33.923Z,24.52
2019-05-18T12:33:04.056Z,24.80
2019-05-18T12:35:34.801Z,25.02
2019-05-18T12:38:04.831Z,25.43
2019-05-18T12:40:34.952Z,25.90
2019-05-18T12:43:04.986Z,25.71
2019-05-18T12:45:37.965Z,25.90
2019-05-18T12:48:08.233Z,25.86
2019-05-18T12:50:38.572Z,25.80
2019-05-18T12:53:08.590Z,24.37
2019-05-18T12:55:38.850Z,24.02
2019-05-18T12:58:08.965Z,23.55
2019-05-18T13:00:39.028Z,23.14
2019-05-18T13:03:09.633Z,23.16
2019-05-18T13:05:39.762Z,23.99
2019-05-18T13:08:10.127Z,24.63
2019-05-18T13:10:40.167Z,25.02
2019-05-18T13:13:10.210Z,24.64
2019-05-18T13:15:40.653Z,24.97
2019-05-18T13:18:11.271Z,25.75
2019-05-18T13:20:42.284Z,26.33
2019-05-18T13:23:12.405Z,26.08
2019-05-18T13:25:43.333Z,25.98
2019-05-18T13:28:13.346Z,26.30
2019-05-18T13:30:44.990Z,26.22
2019-05-18T13:33:14.959Z,26.99
2019-05-18T13:35:45.921Z,26.36
2019-05-18T13:38:16.014Z,26.49
2019-05-18T13:40:47.334Z,26.86
2019-05-18T13:43:17.617Z,26.54
2019-05-18T13:45:48.161Z,26.55
2019-05-18T13:48:18.685Z,26.06
2019-05-18T13:50:48.691Z,26.03
2019-05-18T13:53:18.685Z,26.55
2019-05-18T13:55:48.859Z,26.25
2019-05-18T13:58:18.933Z,25.90
2019-05-18T14:00:48.954Z,25.51
2019-05-18T14:03:19.317Z,25.16
2019-05-18T14:05:49.302Z,25.46
2019-05-18T14:08:19.317Z,25.72
2019-05-18T14:10:49.727Z,25.91
2019-05-18T14:13:19.737Z,25.49
2019-05-18T14:15:49.986Z,25.79
2019-05-18T14:18:22.201Z,25.74
2019-05-18T14:20:52.168Z,26.05
2019-05-18T14:23:22.287Z,26.57
2019-05-18T14:25:52.758Z,26.68
2019-05-18T14:28:22.784Z,26.61
2019-05-18T14:30:53.207Z,26.32
2019-05-18T14:33:23.346Z,26.10
2019-05-18T14:35:53.393Z,26.28
2019-05-18T14:38:23.480Z,26.19
2019-05-18T14:40:54.528Z,25.75
2019-05-18T14:43:24.627Z,25.37
2019-05-18T14:45:54.893Z,25.54
2019-05-18T14:48:25.430Z,25.65
2019-05-18T14:50:55.521Z,25.95
2019-05-18T14:53:27.386Z,25.87
2019-05-18T14:55:57.942Z,25.44
2019-05-18T14:58:28.275Z,25.31
2019-05-18T15:00:59.155Z,25.57
2019-05-18T15:03:31.382Z,25.26
2019-05-18T15:06:01.431Z,25.73
2019-05-18T15:08:32.994Z,25.35
2019-05-18T15:11:03.281Z,25.00
2019-05-18T15:13:33.333Z,25.12
2019-05-18T15:16:04.168Z,25.38
2019-05-18T15:18:34.271Z,25.13
2019-05-18T15:21:11.401Z,24.73
2019-05-18T15:23:42.941Z,24.78
2019-05-18T15:26:13.177Z,24.97
2019-05-18T15:28:43.367Z,25.11
2019-05-18T15:31:13.345Z,25.25
2019-05-18T15:33:43.431Z,24.95
2019-05-18T15:36:14.419Z,24.86
2019-05-18T15:38:44.521Z,24.74
2019-05-18T15:41:15.328Z,25.05
2019-05-18T15:43:46.469Z,24.88
2019-05-18T15:46:17.121Z,24.36
2019-05-18T15:48:47.146Z,23.88
2019-05-18T15:51:17.630Z,24.27
2019-05-18T15:53:47.656Z,24.22
2019-05-18T15:56:17.818Z,24.43
2019-05-18T15:58:48.472Z,24.69
2019-05-18T16:01:18.584Z,24.32
2019-05-18T16:03:49.077Z,24.00
2019-05-18T16:06:19.356Z,23.96
2019-05-18T16:08:50.691Z,23.92
2019-05-18T16:11:20.738Z,23.86
2019-05-18T16:13:50.993Z,24.29
2019-05-18T16:16:21.584Z,24.27
2019-05-18T16:18:52.039Z,24.38
2019-05-18T16:21:22.403Z,24.18
2019-05-18T16:23:52.552Z,23.34
2019-05-18T16:26:22.784Z,23.47
2019-05-18T16:28:53.144Z,23.11
2019-05-18T16:31:26.359Z,23.63
2019-05-18T16:33:56.440Z,23.91
2019-05-18T16:36:26.807Z,24.04
2019-05-18T16:38:56.854Z,23.81
2019-05-18T16:41:27.019Z,23.41
2019-05-18T16:43:57.031Z,23.06
2019-05-18T16:46:27.077Z,22.56
2019-05-18T16:48:57.732Z,22.03
2019-05-18T16:51:30.117Z,21.56
2019-05-18T16:54:00.432Z,21.44
2019-05-18T16:56:35.154Z,21.02
2019-05-18T16:59:02.229Z,20.79
2019-05-18T17:01:32.211Z,20.81
2019-05-18T17:04:02.304Z,20.64
2019-05-18T17:06:32.452Z,20.67
2019-05-18T17:09:02.503Z,20.59
2019-05-18T17:11:33.952Z,20.60
2019-05-18T17:14:04.319Z,20.57
2019-05-18T17:16:34.448Z,20.53
2019-05-18T17:19:04.455Z,20.34
2019-05-18T17:21:34.483Z,20.26
2019-05-18T17:24:04.818Z,20.10
2019-05-18T17:26:50.067Z,20.00
2019-05-18T17:29:06.975Z,19.81
2019-05-18T17:31:37.220Z,19.91
2019-05-18T17:34:07.886Z,19.81
2019-05-18T17:36:38.406Z,19.65
2019-05-18T17:39:08.746Z,19.78
2019-05-18T17:41:38.849Z,19.81
2019-05-18T17:44:08.899Z,19.72
2019-05-18T17:46:38.924Z,19.68
2019-05-18T17:49:24.634Z,19.67
2019-05-18T17:51:41.289Z,19.60
2019-05-18T17:54:11.317Z,19.85
2019-05-18T17:56:43.261Z,20.01
2019-05-18T17:59:13.758Z,20.28
2019-05-18T18:01:44.249Z,20.30
2019-05-18T18:04:14.809Z,20.11
2019-05-18T18:06:45.460Z,19.72
2019-05-18T18:09:35.124Z,19.86
2019-05-18T18:12:05.205Z,20.04
2019-05-18T18:14:35.265Z,20.01
2019-05-18T18:17:06.259Z,19.84
2019-05-18T18:19:37.215Z,19.63
2019-05-18T18:22:07.298Z,19.47
2019-05-18T18:24:37.372Z,19.31
2019-05-18T18:27:07.417Z,19.01
2019-05-18T18:29:37.444Z,18.94
2019-05-18T18:32:07.873Z,18.84
2019-05-18T18:34:38.287Z,18.80
2019-05-18T18:37:08.450Z,18.70
2019-05-18T18:39:39.869Z,18.50
2019-05-18T18:42:09.913Z,18.40
2019-05-18T18:44:41.337Z,18.32
2019-05-18T18:47:11.500Z,18.13
2019-05-18T18:49:42.657Z,18.00
2019-05-18T18:52:14.268Z,17.59
2019-05-18T18:54:44.702Z,17.56
2019-05-18T18:57:15.106Z,17.37
2019-05-18T18:59:45.380Z,17.17
2019-05-18T19:02:15.436Z,17.00
2019-05-18T19:04:45.553Z,16.78
2019-05-18T19:07:16.252Z,16.42
2019-05-18T19:09:46.432Z,16.38
2019-05-18T19:12:16.636Z,16.26
2019-05-18T19:14:46.931Z,16.14
2019-05-18T19:17:17.335Z,16.02
2019-05-18T19:19:47.273Z,15.91
2019-05-18T19:22:18.309Z,15.74
2019-05-18T19:24:48.767Z,15.68
2019-05-18T19:27:19.154Z,15.45
2019-05-18T19:29:49.230Z,15.42
2019-05-18T19:32:19.528Z,15.38
2019-05-18T19:34:49.566Z,15.36
2019-05-18T19:37:20.002Z,15.36
2019-05-18T19:39:50.126Z,15.31
2019-05-18T19:42:20.150Z,15.18
2019-05-18T19:44:50.756Z,15.12
2019-05-18T19:47:20.939Z,15.17
2019-05-18T19:49:52.346Z,15.19
2019-05-18T19:52:22.958Z,15.11
2019-05-18T19:54:53.253Z,15.07
2019-05-18T19:57:23.678Z,14.94
2019-05-18T19:59:54.072Z,14.86
2019-05-18T20:02:27.121Z,14.83
2019-05-18T20:05:07.112Z,14.83
2019-05-18T20:07:29.497Z,14.71
2019-05-18T20:09:59.599Z,14.63
2019-05-18T20:12:29.710Z,14.53
2019-05-18T20:15:03.382Z,14.57
2019-05-18T20:17:33.864Z,14.62
2019-05-18T20:20:05.030Z,14.57
2019-05-18T20:22:35.239Z,14.62
2019-05-18T20:25:05.987Z,14.49
2019-05-18T20:27:36.463Z,14.42
2019-05-18T20:30:07.266Z,14.43
2019-05-18T20:32:38.014Z,14.41
2019-05-18T20:35:08.619Z,14.27
2019-05-18T20:37:39.290Z,14.16
2019-05-18T20:40:09.621Z,14.19
2019-05-18T20:42:40.032Z,14.12
2019-05-18T20:45:11.236Z,13.95
2019-05-18T20:47:41.462Z,13.99
2019-05-18T20:50:14.713Z,13.91
2019-05-18T20:52:46.864Z,13.89
2019-05-18T20:55:16.931Z,13.86
2019-05-18T20:57:47.946Z,13.88
2019-05-18T21:00:18.140Z,13.81
2019-05-18T21:02:48.617Z,13.69
2019-05-18T21:05:19.189Z,13.69
2019-05-18T21:07:49.336Z,13.62
2019-05-18T21:10:19.850Z,13.57
2019-05-18T21:12:50.293Z,13.56
2019-05-18T21:15:20.284Z,13.54
2019-05-18T21:17:50.818Z,13.54
2019-05-18T21:20:21.342Z,13.58
2019-05-18T21:22:51.373Z,13.57
2019-05-18T21:25:23.565Z,13.57
2019-05-18T21:27:53.699Z,13.59
2019-05-18T21:30:23.974Z,13.61
2019-05-18T21:32:55.203Z,13.55
2019-05-18T21:35:28.024Z,13.56
2019-05-18T21:37:58.478Z,13.61
2019-05-18T21:40:28.679Z,13.62
2019-05-18T21:42:58.769Z,13.57
2019-05-18T21:45:29.695Z,13.52
2019-05-18T21:48:00.033Z,13.60
2019-05-18T21:50:31.103Z,13.62
2019-05-18T21:53:02.207Z,13.50
2019-05-18T21:55:32.833Z,13.53
2019-05-18T21:58:02.862Z,13.54
2019-05-18T22:00:34.612Z,13.54
2019-05-18T22:03:05.201Z,13.48
2019-05-18T22:05:35.800Z,13.42
2019-05-18T22:08:06.738Z,13.47
2019-05-18T22:10:38.347Z,13.38
2019-05-18T22:13:08.559Z,13.48
2019-05-18T22:15:39.176Z,13.50
2019-05-18T22:18:23.664Z,13.48
2019-05-18T22:20:44.560Z,13.38
2019-05-18T22:23:14.919Z,13.41
2019-05-18T22:25:45.387Z,13.41
2019-05-18T22:28:16.897Z,13.42
2019-05-18T22:30:47.484Z,13.41
2019-05-18T22:33:20.310Z,13.28
2019-05-18T22:35:50.427Z,13.28
2019-05-18T22:38:23.432Z,13.33
2019-05-18T22:40:54.059Z,13.33
2019-05-18T22:43:25.815Z,13.18
2019-05-18T22:45:56.918Z,13.17
2019-05-18T22:48:40.774Z,13.00
2019-05-18T22:51:08.506Z,13.00
2019-05-18T22:53:39.563Z,12.69
2019-05-18T22:56:10.913Z,12.69
2019-05-18T22:58:41.092Z,12.46
2019-05-18T23:01:12.428Z,12.40
2019-05-18T23:03:43.427Z,12.40
2019-05-18T23:06:13.889Z,12.35
2019-05-18T23:08:44.200Z,12.33
2019-05-18T23:11:18.738Z,12.33
2019-05-18T23:13:48.839Z,12.36
2019-05-18T23:16:19.209Z,12.36
2019-05-18T23:18:56.783Z,12.40
2019-05-18T23:21:26.420Z,12.40
2019-05-18T23:23:56.472Z,12.32
2019-05-18T23:26:27.223Z,12.38
2019-05-18T23:28:59.290Z,12.39
2019-05-18T23:31:32.943Z,12.34
2019-05-18T23:34:03.453Z,12.38
2019-05-18T23:36:35.230Z,12.40
2019-05-18T23:39:06.250Z,12.40
2019-05-18T23:41:36.436Z,12.27
2019-05-18T23:44:07.496Z,12.16
2019-05-18T23:46:38.656Z,12.17
2019-05-18T23:49:11.197Z,12.19
2019-05-18T23:51:40.934Z,12.22
2019-05-18T23:54:11.330Z,12.24
2019-05-18T23:56:41.417Z,12.22
2019-05-18T23:59:11.919Z,12.22
